Terminal Aerodrome Forecast
Issued by NWS

Home | Current Version | Previous Version | Text Only | Print | Product List | Glossary On
Versions: 1 2 3 4 5 6 7 8 9 10 11 12
993
FTUS43 KPAH 131140
TAFMVN
TAF
KMVN 131140Z 1312/1412 00000KT P6SM OVC200
     FM140500 00000KT 2SM BR OVC020
     FM140700 00000KT 1 1/2SM BR BKN017
     FM140900 00000KT 1SM BR BKN015
     FM141000 00000KT 1/2SM FG BKN012
     FM141100 00000KT 1/4SM FG BKN008=

USA.gov is the U.S. government's official web portal to all federal, state and local government web resources and services.